createdAt,value
2018-09-14T00:01:00.852Z,9.90
2018-09-14T00:02:06.445Z,9.90
2018-09-14T00:03:11.872Z,9.90
2018-09-14T00:04:17.275Z,9.90
2018-09-14T00:05:22.718Z,9.90
2018-09-14T00:06:28.124Z,9.80
2018-09-14T00:07:33.580Z,9.80
2018-09-14T00:08:39.020Z,9.80
2018-09-14T00:09:44.492Z,9.80
2018-09-14T00:10:49.950Z,9.80
2018-09-14T00:11:55.344Z,9.70
2018-09-14T00:13:00.752Z,9.70
2018-09-14T00:14:06.498Z,9.70
2018-09-14T00:15:11.940Z,9.70
2018-09-14T00:16:17.336Z,9.60
2018-09-14T00:17:23.005Z,9.60
2018-09-14T00:18:28.422Z,9.60
2018-09-14T00:19:33.845Z,9.50
2018-09-14T00:20:39.262Z,9.50
2018-09-14T00:21:44.664Z,9.50
2018-09-14T00:22:50.425Z,9.50
2018-09-14T00:23:55.945Z,9.40
2018-09-14T00:25:01.365Z,9.40
2018-09-14T00:26:06.894Z,9.40
2018-09-14T00:27:12.352Z,9.40
2018-09-14T00:28:18.246Z,9.40
2018-09-14T00:29:23.680Z,9.40
2018-09-14T00:30:29.145Z,9.40
2018-09-14T00:31:34.561Z,9.40
2018-09-14T00:32:39.959Z,9.40
2018-09-14T00:33:45.458Z,9.40
2018-09-14T00:34:50.881Z,9.40
2018-09-14T00:35:56.256Z,9.40
2018-09-14T00:37:01.801Z,9.40
2018-09-14T00:38:07.237Z,9.40
2018-09-14T00:39:13.043Z,9.40
2018-09-14T00:40:18.797Z,9.40
2018-09-14T00:41:24.321Z,9.30
2018-09-14T00:42:29.737Z,9.30
2018-09-14T00:43:35.168Z,9.30
2018-09-14T00:44:40.953Z,9.20
2018-09-14T00:45:46.390Z,9.20
2018-09-14T00:46:51.805Z,9.20
2018-09-14T00:47:57.243Z,9.10
2018-09-14T00:49:02.832Z,9.10
2018-09-14T00:50:08.301Z,9.10
2018-09-14T00:51:13.716Z,9.10
2018-09-14T00:52:19.146Z,9.00
2018-09-14T00:53:24.513Z,9.00
2018-09-14T00:54:29.925Z,9.00
2018-09-14T00:55:35.508Z,9.00
2018-09-14T00:56:41.284Z,9.00
2018-09-14T00:57:46.697Z,9.00
2018-09-14T00:58:52.095Z,9.00
2018-09-14T00:59:57.500Z,9.00
2018-09-14T01:01:02.899Z,9.00
2018-09-14T01:02:08.338Z,9.00
2018-09-14T01:03:13.786Z,9.00
2018-09-14T01:04:19.217Z,9.00
2018-09-14T01:05:24.679Z,9.00
2018-09-14T01:06:30.064Z,9.00
2018-09-14T01:07:36.383Z,9.00
2018-09-14T01:08:41.898Z,8.90
2018-09-14T01:09:47.304Z,9.00
2018-09-14T01:10:52.812Z,8.90
2018-09-14T01:11:59.460Z,8.90
2018-09-14T01:13:04.883Z,8.90
2018-09-14T01:14:10.348Z,8.90
2018-09-14T01:15:15.791Z,8.80
2018-09-14T01:16:21.220Z,8.90
2018-09-14T01:17:26.658Z,8.90
2018-09-14T01:18:32.337Z,8.80
2018-09-14T01:19:37.740Z,8.80
2018-09-14T01:20:43.236Z,8.80
2018-09-14T01:21:48.728Z,8.80
2018-09-14T01:22:54.153Z,8.80
2018-09-14T01:23:59.852Z,8.80
2018-09-14T01:25:05.377Z,8.80
2018-09-14T01:26:10.874Z,8.80
2018-09-14T01:27:16.412Z,8.70
2018-09-14T01:28:21.924Z,8.60
2018-09-14T01:29:27.384Z,8.60
2018-09-14T01:30:32.820Z,8.60
2018-09-14T01:31:38.276Z,8.60
2018-09-14T01:32:43.768Z,8.50
2018-09-14T01:33:49.151Z,8.50
2018-09-14T01:34:54.961Z,8.50
2018-09-14T01:36:05.484Z,8.50
2018-09-14T01:37:10.897Z,8.50
2018-09-14T01:38:16.257Z,8.50
2018-09-14T01:39:21.712Z,8.50
2018-09-14T01:40:27.148Z,8.50
2018-09-14T01:41:32.638Z,8.50
2018-09-14T01:42:38.022Z,8.50
2018-09-14T01:43:43.393Z,8.50
2018-09-14T01:44:48.814Z,8.50
2018-09-14T01:45:54.264Z,8.50
2018-09-14T01:46:59.685Z,8.50
2018-09-14T01:48:05.097Z,8.50
2018-09-14T01:49:10.544Z,8.50
2018-09-14T01:50:15.953Z,8.50
2018-09-14T01:51:21.399Z,8.50
2018-09-14T01:52:26.786Z,8.50
2018-09-14T01:53:32.190Z,8.50
2018-09-14T01:54:37.553Z,8.50
2018-09-14T01:55:42.984Z,8.50
2018-09-14T01:56:48.678Z,8.50
2018-09-14T01:57:54.220Z,8.50
2018-09-14T01:58:59.650Z,8.50
2018-09-14T02:00:06.000Z,8.50
2018-09-14T02:01:11.468Z,8.50
2018-09-14T02:02:16.964Z,8.50
2018-09-14T02:03:22.370Z,8.50
2018-09-14T02:04:27.757Z,8.50
2018-09-14T02:05:33.216Z,8.50
2018-09-14T02:06:38.638Z,8.50
2018-09-14T02:07:44.034Z,8.60
2018-09-14T02:08:49.485Z,8.60
2018-09-14T02:09:54.960Z,8.50
2018-09-14T02:11:00.381Z,8.50
2018-09-14T02:12:05.813Z,8.50
2018-09-14T02:13:11.192Z,8.50
2018-09-14T02:14:16.593Z,8.40
2018-09-14T02:15:22.057Z,8.40
2018-09-14T02:16:27.446Z,8.40
2018-09-14T02:17:32.849Z,8.30
2018-09-14T02:18:38.268Z,8.30
2018-09-14T02:19:43.685Z,8.30
2018-09-14T02:20:49.117Z,8.30
2018-09-14T02:21:54.896Z,8.30
2018-09-14T02:23:00.280Z,8.30
2018-09-14T02:24:05.764Z,8.30
2018-09-14T02:25:11.656Z,8.30
2018-09-14T02:26:17.051Z,8.30
2018-09-14T02:27:22.543Z,8.30
2018-09-14T02:28:27.949Z,8.30
2018-09-14T02:29:33.329Z,8.30
2018-09-14T02:30:38.729Z,8.30
2018-09-14T02:31:44.185Z,8.20
2018-09-14T02:32:49.734Z,8.20
2018-09-14T02:33:55.113Z,8.20
2018-09-14T02:35:00.565Z,8.10
2018-09-14T02:36:05.973Z,8.10
2018-09-14T02:37:11.410Z,8.20
2018-09-14T02:38:16.923Z,8.10
2018-09-14T02:39:22.298Z,8.10
2018-09-14T02:40:27.701Z,8.10
2018-09-14T02:41:33.079Z,8.00
2018-09-14T02:42:38.489Z,8.00
2018-09-14T02:43:43.907Z,8.00
2018-09-14T02:44:49.278Z,8.00
2018-09-14T02:45:54.708Z,8.00
2018-09-14T02:47:00.103Z,8.00
2018-09-14T02:48:05.592Z,8.00
2018-09-14T02:49:10.974Z,8.00
2018-09-14T02:50:16.380Z,7.90
2018-09-14T02:51:21.780Z,7.90
2018-09-14T02:52:27.168Z,7.90
2018-09-14T02:53:32.671Z,7.90
2018-09-14T02:54:38.160Z,7.90
2018-09-14T02:55:43.648Z,7.90
2018-09-14T02:56:49.165Z,7.90
2018-09-14T02:57:54.573Z,7.90
2018-09-14T02:58:59.989Z,7.90
2018-09-14T03:00:06.514Z,7.90
2018-09-14T03:01:11.895Z,7.90
2018-09-14T03:02:17.335Z,7.90
2018-09-14T03:03:22.755Z,7.80
2018-09-14T03:04:28.177Z,7.80
2018-09-14T03:05:33.767Z,7.80
2018-09-14T03:06:39.216Z,7.80
2018-09-14T03:07:44.730Z,7.80
2018-09-14T03:08:50.136Z,7.80
2018-09-14T03:09:55.613Z,7.80
2018-09-14T03:11:01.085Z,7.70
2018-09-14T03:12:06.541Z,7.70
2018-09-14T03:13:11.964Z,7.70
2018-09-14T03:14:17.367Z,7.70
2018-09-14T03:15:22.817Z,7.70
2018-09-14T03:16:28.338Z,7.70
2018-09-14T03:17:33.761Z,7.70
2018-09-14T03:18:39.184Z,7.70
2018-09-14T03:19:44.617Z,7.70
2018-09-14T03:20:50.022Z,7.70
2018-09-14T03:21:55.462Z,7.70
2018-09-14T03:23:00.937Z,7.70
2018-09-14T03:24:06.564Z,7.70
2018-09-14T03:25:11.978Z,7.70
2018-09-14T03:26:17.393Z,7.60
2018-09-14T03:27:22.802Z,7.60
2018-09-14T03:28:28.392Z,7.50
2018-09-14T03:29:33.841Z,7.60
2018-09-14T03:30:39.324Z,7.60
2018-09-14T03:31:44.742Z,7.50
2018-09-14T03:32:50.169Z,7.60
2018-09-14T03:33:55.692Z,7.60
2018-09-14T03:35:01.161Z,7.60
2018-09-14T03:36:07.219Z,7.60
2018-09-14T03:37:12.584Z,7.60
2018-09-14T03:38:18.335Z,7.60
2018-09-14T03:39:23.766Z,7.60
2018-09-14T03:40:29.126Z,7.60
2018-09-14T03:41:34.548Z,7.50
2018-09-14T03:42:39.990Z,7.50
2018-09-14T03:43:45.465Z,7.50
2018-09-14T03:44:50.901Z,7.50
2018-09-14T03:45:56.330Z,7.60
2018-09-14T03:47:01.760Z,7.50
2018-09-14T03:48:07.236Z,7.50
2018-09-14T03:49:12.673Z,7.50
2018-09-14T03:50:18.048Z,7.50
2018-09-14T03:51:24.369Z,7.50
2018-09-14T03:52:29.760Z,7.40
2018-09-14T03:53:35.241Z,7.40
2018-09-14T03:54:40.722Z,7.40
2018-09-14T03:55:46.148Z,7.50
2018-09-14T03:56:51.573Z,7.40
2018-09-14T03:57:56.993Z,7.40
2018-09-14T03:59:02.490Z,7.40
2018-09-14T04:00:08.293Z,7.40
2018-09-14T04:01:13.817Z,7.40
2018-09-14T04:02:19.233Z,7.40
2018-09-14T04:03:24.889Z,7.40
2018-09-14T04:04:30.460Z,7.40
2018-09-14T04:05:36.112Z,7.40
2018-09-14T04:06:41.652Z,7.40
2018-09-14T04:07:47.241Z,7.40
2018-09-14T04:08:52.629Z,7.40
2018-09-14T04:09:58.081Z,7.40
2018-09-14T04:11:03.474Z,7.40
2018-09-14T04:12:08.877Z,7.40
2018-09-14T04:13:14.298Z,7.40
2018-09-14T04:14:19.729Z,7.30
2018-09-14T04:15:25.138Z,7.30
2018-09-14T04:16:30.530Z,7.30
2018-09-14T04:17:36.268Z,7.30
2018-09-14T04:18:41.672Z,7.30
2018-09-14T04:19:47.048Z,7.30
2018-09-14T04:20:52.453Z,7.30
2018-09-14T04:21:57.841Z,7.30
2018-09-14T04:23:03.296Z,7.30
2018-09-14T04:24:08.782Z,7.30
2018-09-14T04:25:14.141Z,7.30
2018-09-14T04:26:19.597Z,7.30
2018-09-14T04:27:24.965Z,7.30
2018-09-14T04:28:30.518Z,7.30
2018-09-14T04:29:35.933Z,7.30
2018-09-14T04:30:41.381Z,7.30
2018-09-14T04:31:46.926Z,7.30
2018-09-14T04:32:52.350Z,7.30
2018-09-14T04:33:57.817Z,7.30
2018-09-14T04:35:03.636Z,7.30
2018-09-14T04:36:09.096Z,7.30
2018-09-14T04:37:14.489Z,7.20
2018-09-14T04:38:19.953Z,7.30
2018-09-14T04:39:25.552Z,7.30
2018-09-14T04:40:30.998Z,7.20
2018-09-14T04:41:36.622Z,7.30
2018-09-14T04:42:42.037Z,7.30
2018-09-14T04:43:47.732Z,7.30
2018-09-14T04:44:53.124Z,7.30
2018-09-14T04:45:58.821Z,7.20
2018-09-14T04:47:04.252Z,7.30
2018-09-14T04:48:09.624Z,7.20
2018-09-14T04:49:15.021Z,7.20
2018-09-14T04:50:20.502Z,7.20
2018-09-14T04:51:25.950Z,7.20
2018-09-14T04:52:31.273Z,7.20
2018-09-14T04:53:36.680Z,7.20
2018-09-14T04:54:42.162Z,7.20
2018-09-14T04:55:47.565Z,7.20
2018-09-14T04:56:53.098Z,7.20
2018-09-14T04:57:58.673Z,7.20
2018-09-14T04:59:04.144Z,7.20
2018-09-14T05:00:09.674Z,7.20
2018-09-14T05:01:15.144Z,7.20
2018-09-14T05:02:20.561Z,7.20
2018-09-14T05:03:26.002Z,7.20
2018-09-14T05:04:31.433Z,7.20
2018-09-14T05:05:37.097Z,7.20
2018-09-14T05:06:42.505Z,7.20
2018-09-14T05:07:47.888Z,7.20
2018-09-14T05:08:53.318Z,7.20
2018-09-14T05:09:58.829Z,7.30
2018-09-14T05:11:04.308Z,7.20
2018-09-14T05:12:09.829Z,7.20
2018-09-14T05:13:15.413Z,7.20
2018-09-14T05:14:20.915Z,7.30
2018-09-14T05:15:26.410Z,7.30
2018-09-14T05:16:31.821Z,7.30
2018-09-14T05:17:37.227Z,7.30
2018-09-14T05:18:42.757Z,7.30
2018-09-14T05:19:48.817Z,7.30
2018-09-14T05:20:54.314Z,7.40
2018-09-14T05:21:59.809Z,7.40
2018-09-14T05:23:05.373Z,7.40
2018-09-14T05:24:10.861Z,7.40
2018-09-14T05:25:16.337Z,7.50
2018-09-14T05:26:21.721Z,7.50
2018-09-14T05:27:27.181Z,7.50
2018-09-14T05:28:32.585Z,7.50
2018-09-14T05:29:38.202Z,7.50
2018-09-14T05:30:43.868Z,7.50
2018-09-14T05:31:49.268Z,7.50
2018-09-14T05:32:55.171Z,7.60
2018-09-14T05:34:00.590Z,7.60
2018-09-14T05:35:06.229Z,7.60
2018-09-14T05:36:11.640Z,7.60
2018-09-14T05:37:17.069Z,7.60
2018-09-14T05:38:22.613Z,7.70
2018-09-14T05:39:28.128Z,7.70
2018-09-14T05:40:33.566Z,7.70
2018-09-14T05:41:38.965Z,7.80
2018-09-14T05:42:44.526Z,7.80
2018-09-14T05:43:50.413Z,7.80
2018-09-14T05:44:55.883Z,7.90
2018-09-14T05:46:01.333Z,7.90
2018-09-14T05:47:07.426Z,7.90
2018-09-14T05:48:13.557Z,7.90
2018-09-14T05:49:18.973Z,7.90
2018-09-14T05:50:24.537Z,8.00
2018-09-14T05:51:29.933Z,8.00
2018-09-14T05:52:35.450Z,8.00
2018-09-14T05:53:40.821Z,8.00
2018-09-14T05:54:47.302Z,8.00
2018-09-14T05:55:52.760Z,8.00
2018-09-14T05:56:58.216Z,8.00
2018-09-14T05:58:03.626Z,8.00
2018-09-14T05:59:09.178Z,8.00
2018-09-14T06:00:14.666Z,8.00
2018-09-14T06:01:20.276Z,8.00
2018-09-14T06:02:25.805Z,8.00
2018-09-14T06:03:31.197Z,8.00
2018-09-14T06:04:36.672Z,8.00
2018-09-14T06:05:42.121Z,8.10
2018-09-14T06:06:47.520Z,8.10
2018-09-14T06:07:53.089Z,8.10
2018-09-14T06:08:58.517Z,8.20
2018-09-14T06:10:03.973Z,8.20
2018-09-14T06:11:09.708Z,8.20
2018-09-14T06:12:15.120Z,8.30
2018-09-14T06:13:20.615Z,8.30
2018-09-14T06:14:26.121Z,8.40
2018-09-14T06:15:31.525Z,8.50
2018-09-14T06:16:37.284Z,8.50
2018-09-14T06:17:42.813Z,8.50
2018-09-14T06:18:48.750Z,8.60
2018-09-14T06:19:54.520Z,8.70
2018-09-14T06:20:59.984Z,8.70
2018-09-14T06:22:05.453Z,8.70
2018-09-14T06:23:10.878Z,8.80
2018-09-14T06:24:16.338Z,8.90
2018-09-14T06:25:21.770Z,9.00
2018-09-14T06:26:27.160Z,9.00
2018-09-14T06:27:32.529Z,9.10
2018-09-14T06:28:37.929Z,9.20
2018-09-14T06:29:43.393Z,9.20
2018-09-14T06:30:48.893Z,9.30
2018-09-14T06:31:54.349Z,9.40
2018-09-14T06:32:59.814Z,9.50
2018-09-14T06:34:05.235Z,9.60
2018-09-14T06:35:10.662Z,9.60
2018-09-14T06:36:16.124Z,9.70
2018-09-14T06:37:21.610Z,9.70
2018-09-14T06:38:27.570Z,9.80
2018-09-14T06:39:33.068Z,9.80
2018-09-14T06:40:38.452Z,9.90
2018-09-14T06:41:43.875Z,9.90
2018-09-14T06:42:49.295Z,10.00
2018-09-14T06:43:54.700Z,10.10
2018-09-14T06:45:00.187Z,10.10
2018-09-14T06:46:06.014Z,10.20
2018-09-14T06:47:12.057Z,10.20
2018-09-14T06:48:17.513Z,10.30
2018-09-14T06:49:22.990Z,10.40
2018-09-14T06:50:28.423Z,10.40
2018-09-14T06:51:34.628Z,10.50
2018-09-14T06:52:40.072Z,10.50
2018-09-14T06:53:45.473Z,10.60
2018-09-14T06:54:51.590Z,10.60
2018-09-14T06:55:57.529Z,10.70
2018-09-14T06:57:02.969Z,10.70
2018-09-14T06:58:08.384Z,10.80
2018-09-14T06:59:13.760Z,10.90
2018-09-14T07:00:19.301Z,10.90
2018-09-14T07:01:24.764Z,11.00
2018-09-14T07:02:30.189Z,11.00
2018-09-14T07:03:35.629Z,11.10
2018-09-14T07:04:41.057Z,11.20
2018-09-14T07:05:46.491Z,11.20
2018-09-14T07:06:52.597Z,11.30
2018-09-14T07:07:58.049Z,11.30
2018-09-14T07:09:03.620Z,11.30
2018-09-14T07:10:09.045Z,11.40
2018-09-14T07:11:14.491Z,11.40
2018-09-14T07:12:20.053Z,11.40
2018-09-14T07:13:25.585Z,11.40
2018-09-14T07:14:31.089Z,11.50
2018-09-14T07:15:36.493Z,11.50
2018-09-14T07:16:41.925Z,11.50
2018-09-14T07:17:47.360Z,11.50
2018-09-14T07:18:52.817Z,11.60
2018-09-14T07:19:58.371Z,11.70
2018-09-14T07:21:03.804Z,11.80
2018-09-14T07:22:09.288Z,11.80
2018-09-14T07:23:14.685Z,11.90
2018-09-14T07:24:20.279Z,12.00
2018-09-14T07:25:25.731Z,12.10
2018-09-14T07:26:32.273Z,12.20
2018-09-14T07:27:37.688Z,12.30
2018-09-14T07:28:43.163Z,12.40
2018-09-14T07:29:48.573Z,12.40
2018-09-14T07:30:54.101Z,12.50
2018-09-14T07:31:59.536Z,12.60
2018-09-14T07:33:04.999Z,12.70
2018-09-14T07:34:10.407Z,12.70
2018-09-14T07:35:15.851Z,12.80
2018-09-14T07:36:21.326Z,12.80
2018-09-14T07:37:26.928Z,12.90
2018-09-14T07:38:32.506Z,12.90
2018-09-14T07:39:38.012Z,12.90
2018-09-14T07:40:43.518Z,13.00
2018-09-14T07:41:49.033Z,13.10
2018-09-14T07:42:54.563Z,13.10
2018-09-14T07:43:59.969Z,13.20
2018-09-14T07:45:05.836Z,13.20
2018-09-14T07:46:11.570Z,13.40
2018-09-14T07:47:17.086Z,13.30
2018-09-14T07:48:22.611Z,13.40
2018-09-14T07:49:28.023Z,13.50
2018-09-14T07:50:33.551Z,13.60
2018-09-14T07:51:38.978Z,13.70
2018-09-14T07:52:44.386Z,13.70
2018-09-14T07:53:49.921Z,13.70
2018-09-14T07:54:55.361Z,13.70
2018-09-14T07:56:00.792Z,13.70
2018-09-14T07:57:06.292Z,13.60
2018-09-14T07:58:11.800Z,13.80
2018-09-14T07:59:17.257Z,13.90
2018-09-14T08:00:22.844Z,13.90
2018-09-14T08:01:28.325Z,14.00
2018-09-14T08:02:34.149Z,14.10
2018-09-14T08:03:39.729Z,14.10
2018-09-14T08:04:45.271Z,14.10
2018-09-14T08:05:50.853Z,14.00
2018-09-14T08:06:56.351Z,14.10
2018-09-14T08:08:01.837Z,14.30
2018-09-14T08:09:11.600Z,14.30
2018-09-14T08:10:17.322Z,14.30
2018-09-14T08:11:23.004Z,14.40
2018-09-14T08:12:28.489Z,14.50
2018-09-14T08:13:35.428Z,14.60
2018-09-14T08:14:40.958Z,14.70
2018-09-14T08:15:46.459Z,14.70
2018-09-14T08:16:51.881Z,14.80
2018-09-14T08:17:57.417Z,14.90
2018-09-14T08:19:02.960Z,15.00
2018-09-14T08:20:08.596Z,15.10
2018-09-14T08:21:14.145Z,15.10
2018-09-14T08:22:19.638Z,15.30
2018-09-14T08:23:25.166Z,15.40
2018-09-14T08:24:30.607Z,15.40
2018-09-14T08:25:36.241Z,15.50
2018-09-14T08:26:41.772Z,15.50
2018-09-14T08:27:47.168Z,15.60
2018-09-14T08:28:52.988Z,15.60
2018-09-14T08:29:58.514Z,15.60
2018-09-14T08:31:03.972Z,15.60
2018-09-14T08:32:09.423Z,15.70
2018-09-14T08:33:14.796Z,15.70
2018-09-14T08:34:20.305Z,15.80
2018-09-14T08:35:25.728Z,15.70
2018-09-14T08:36:31.161Z,15.90
2018-09-14T08:37:36.911Z,15.80
2018-09-14T08:38:42.535Z,15.90
2018-09-14T08:39:48.111Z,15.90
2018-09-14T08:40:53.567Z,15.90
2018-09-14T08:41:59.014Z,15.90
2018-09-14T08:43:04.625Z,15.90
2018-09-14T08:44:10.416Z,16.00
2018-09-14T08:45:15.979Z,16.10
2018-09-14T08:46:21.536Z,16.10
2018-09-14T08:47:27.052Z,16.20
2018-09-14T08:48:32.463Z,16.20
2018-09-14T08:49:38.057Z,16.20
2018-09-14T08:50:43.575Z,16.30
2018-09-14T08:51:49.105Z,16.30
2018-09-14T08:52:54.620Z,16.30
2018-09-14T08:54:00.249Z,16.30
2018-09-14T08:55:05.730Z,16.40
2018-09-14T08:56:11.218Z,16.50
2018-09-14T08:57:16.798Z,16.60
2018-09-14T08:58:22.325Z,16.70
2018-09-14T08:59:27.846Z,16.70
2018-09-14T09:00:33.708Z,16.80
2018-09-14T09:01:39.132Z,16.80
2018-09-14T09:02:45.203Z,16.90
2018-09-14T09:03:50.765Z,17.00
2018-09-14T09:04:56.145Z,17.10
2018-09-14T09:06:01.521Z,17.10
2018-09-14T09:07:07.216Z,17.10
2018-09-14T09:08:12.628Z,17.20
2018-09-14T09:09:18.271Z,17.20
2018-09-14T09:10:23.652Z,17.30
2018-09-14T09:11:29.087Z,17.30
2018-09-14T09:12:34.516Z,17.40
2018-09-14T09:13:40.080Z,17.40
2018-09-14T09:14:45.672Z,17.50
2018-09-14T09:15:51.154Z,17.60
2018-09-14T09:16:56.584Z,17.50
2018-09-14T09:18:01.973Z,17.60
2018-09-14T09:19:07.541Z,17.70
2018-09-14T09:20:13.105Z,17.70
2018-09-14T09:21:18.950Z,17.70
2018-09-14T09:22:24.369Z,17.70
2018-09-14T09:23:29.840Z,17.60
2018-09-14T09:24:35.309Z,17.60
2018-09-14T09:25:40.836Z,17.70
2018-09-14T09:26:46.462Z,17.70
2018-09-14T09:27:51.857Z,17.70
2018-09-14T09:28:57.593Z,17.80
2018-09-14T09:30:03.143Z,17.80
2018-09-14T09:31:08.860Z,17.80
2018-09-14T09:32:14.437Z,17.90
2018-09-14T09:33:20.106Z,17.90
2018-09-14T09:34:25.848Z,18.00
2018-09-14T09:35:31.317Z,18.10
2018-09-14T09:36:37.507Z,18.10
2018-09-14T09:37:43.001Z,18.10
2018-09-14T09:38:48.441Z,18.10
2018-09-14T09:39:53.914Z,18.20
2018-09-14T09:40:59.448Z,18.20
2018-09-14T09:42:04.993Z,18.30
2018-09-14T09:43:10.441Z,18.40
2018-09-14T09:44:15.929Z,18.50
2018-09-14T09:45:21.646Z,18.50
2018-09-14T09:46:27.045Z,18.60
2018-09-14T09:47:32.476Z,18.60
2018-09-14T09:48:38.228Z,18.70
2018-09-14T09:49:43.657Z,18.80
2018-09-14T09:50:49.204Z,18.80
2018-09-14T09:51:54.721Z,18.80
2018-09-14T09:53:00.238Z,18.90
2018-09-14T09:54:05.774Z,19.00
2018-09-14T09:55:11.497Z,18.90
2018-09-14T09:56:17.124Z,19.00
2018-09-14T09:57:22.598Z,19.00
2018-09-14T09:58:28.191Z,19.00
2018-09-14T09:59:33.721Z,19.00
2018-09-14T10:00:47.226Z,19.00
2018-09-14T10:01:57.764Z,19.00
2018-09-14T10:03:08.582Z,19.10
2018-09-14T10:04:19.427Z,19.10
2018-09-14T10:05:29.868Z,19.20
2018-09-14T10:06:35.324Z,19.20
2018-09-14T10:07:40.769Z,19.10
2018-09-14T10:08:46.260Z,19.10
2018-09-14T10:09:51.724Z,19.20
2018-09-14T10:10:57.590Z,19.20
2018-09-14T10:12:03.096Z,19.30
2018-09-14T10:13:08.497Z,19.30
2018-09-14T10:14:13.962Z,19.30
2018-09-14T10:15:19.595Z,19.40
2018-09-14T10:16:25.049Z,19.50
2018-09-14T10:17:30.889Z,19.50
2018-09-14T10:18:36.313Z,19.60
2018-09-14T10:19:41.953Z,19.60
2018-09-14T10:20:47.516Z,19.60
2018-09-14T10:21:53.029Z,19.60
2018-09-14T10:22:58.424Z,19.50
2018-09-14T10:24:03.880Z,19.50
2018-09-14T10:25:09.374Z,19.50
2018-09-14T10:26:14.854Z,19.50
2018-09-14T10:27:20.313Z,19.60
2018-09-14T10:28:25.775Z,19.60
2018-09-14T10:29:31.189Z,19.60
2018-09-14T10:30:36.669Z,19.70
2018-09-14T10:31:42.262Z,19.70
2018-09-14T10:32:47.838Z,19.80
2018-09-14T10:33:53.781Z,19.90
2018-09-14T10:35:00.247Z,19.80
2018-09-14T10:36:06.005Z,19.80
2018-09-14T10:37:11.390Z,19.80
2018-09-14T10:38:16.829Z,19.80
2018-09-14T10:39:22.265Z,19.80
2018-09-14T10:40:27.679Z,19.90
2018-09-14T10:41:33.080Z,19.90
2018-09-14T10:42:38.629Z,20.10
2018-09-14T10:43:44.069Z,20.10
2018-09-14T10:44:49.481Z,20.20
2018-09-14T10:45:54.944Z,20.30
2018-09-14T10:47:00.329Z,20.30
2018-09-14T10:48:05.781Z,20.40
2018-09-14T10:49:11.273Z,20.40
2018-09-14T10:50:16.732Z,20.40
2018-09-14T10:51:22.321Z,20.50
2018-09-14T10:52:27.713Z,20.50
2018-09-14T10:53:33.108Z,20.50
2018-09-14T10:54:38.522Z,20.60
2018-09-14T10:55:44.188Z,20.70
2018-09-14T10:56:49.868Z,20.70
2018-09-14T10:57:55.293Z,20.60
2018-09-14T10:59:00.722Z,20.60
2018-09-14T11:00:06.776Z,20.60
2018-09-14T11:01:14.770Z,20.60
2018-09-14T11:02:20.246Z,20.60
2018-09-14T11:03:25.675Z,20.70
2018-09-14T11:04:31.122Z,20.80
2018-09-14T11:05:36.521Z,20.80
2018-09-14T11:06:42.042Z,20.80
2018-09-14T11:07:47.414Z,20.70
2018-09-14T11:08:52.883Z,20.50
2018-09-14T11:09:58.334Z,20.40
2018-09-14T11:11:03.785Z,20.50
2018-09-14T11:12:09.241Z,20.30
2018-09-14T11:13:14.777Z,20.30
2018-09-14T11:14:20.274Z,20.30
2018-09-14T11:15:25.660Z,20.20
2018-09-14T11:16:31.069Z,20.20
2018-09-14T11:17:36.590Z,20.20
2018-09-14T11:18:42.331Z,20.30
2018-09-14T11:19:47.681Z,20.30
2018-09-14T11:20:53.056Z,20.50
2018-09-14T11:21:58.472Z,20.50
2018-09-14T11:23:03.868Z,20.50
2018-09-14T11:24:09.268Z,20.50
2018-09-14T11:25:14.823Z,20.50
2018-09-14T11:26:20.258Z,20.50
2018-09-14T11:27:25.664Z,20.50
2018-09-14T11:28:31.064Z,20.30
2018-09-14T11:29:36.556Z,20.30
2018-09-14T11:30:42.006Z,20.30
2018-09-14T11:31:47.500Z,20.30
2018-09-14T11:32:53.175Z,20.40
2018-09-14T11:33:59.274Z,20.50
2018-09-14T11:35:04.827Z,20.70
2018-09-14T11:36:10.255Z,20.50
2018-09-14T11:37:15.698Z,20.50
2018-09-14T11:38:21.258Z,20.50
2018-09-14T11:39:26.645Z,20.50
2018-09-14T11:40:32.327Z,20.50
2018-09-14T11:41:37.797Z,20.50
2018-09-14T11:42:43.224Z,20.60
2018-09-14T11:43:48.945Z,20.70
2018-09-14T11:44:54.390Z,20.80
2018-09-14T11:45:59.845Z,21.00
2018-09-14T11:47:05.337Z,21.10
2018-09-14T11:48:10.776Z,21.20
2018-09-14T11:49:16.244Z,21.20
2018-09-14T11:50:21.767Z,21.20
2018-09-14T11:51:27.230Z,21.10
2018-09-14T11:52:32.689Z,21.00
2018-09-14T11:53:38.534Z,20.80
2018-09-14T11:54:43.920Z,20.90
2018-09-14T11:55:49.396Z,20.90
2018-09-14T11:56:54.804Z,21.00
2018-09-14T11:58:00.265Z,21.10
2018-09-14T11:59:05.829Z,21.10
2018-09-14T12:00:11.365Z,21.20
2018-09-14T12:01:16.821Z,21.30
2018-09-14T12:02:24.655Z,21.30
2018-09-14T12:03:30.171Z,21.30
2018-09-14T12:04:35.610Z,21.50
2018-09-14T12:05:41.018Z,21.40
2018-09-14T12:06:46.464Z,21.40
2018-09-14T12:07:51.920Z,21.50
2018-09-14T12:08:57.312Z,21.50
2018-09-14T12:10:02.891Z,21.50
2018-09-14T12:11:08.650Z,21.50
2018-09-14T12:12:14.086Z,21.60
2018-09-14T12:13:19.459Z,21.60
2018-09-14T12:14:24.870Z,21.60
2018-09-14T12:15:30.260Z,21.70
2018-09-14T12:16:35.715Z,21.60
2018-09-14T12:17:42.293Z,21.70
2018-09-14T12:18:47.752Z,21.70
2018-09-14T12:19:53.364Z,21.70
2018-09-14T12:20:58.836Z,21.60
2018-09-14T12:22:04.312Z,21.60
2018-09-14T12:23:09.714Z,21.60
2018-09-14T12:24:15.133Z,21.40
2018-09-14T12:25:20.577Z,21.50
2018-09-14T12:26:26.125Z,21.50
2018-09-14T12:27:31.664Z,21.50
2018-09-14T12:28:37.214Z,21.40
2018-09-14T12:29:42.649Z,21.50
2018-09-14T12:30:48.057Z,21.50
2018-09-14T12:31:53.454Z,21.40
2018-09-14T12:32:58.871Z,21.30
2018-09-14T12:34:04.293Z,21.30
2018-09-14T12:35:09.842Z,21.40
2018-09-14T12:36:15.229Z,21.50
2018-09-14T12:37:20.694Z,21.50
2018-09-14T12:38:26.074Z,21.60
2018-09-14T12:39:31.493Z,21.60
2018-09-14T12:40:36.893Z,21.60
2018-09-14T12:41:42.296Z,21.70
2018-09-14T12:42:47.681Z,21.70
2018-09-14T12:43:53.078Z,21.80
2018-09-14T12:44:58.572Z,21.90
2018-09-14T12:46:04.081Z,22.10
2018-09-14T12:47:09.497Z,22.10
2018-09-14T12:48:15.027Z,22.10
2018-09-14T12:49:20.468Z,22.20
2018-09-14T12:50:25.916Z,22.30
2018-09-14T12:51:31.631Z,21.90
2018-09-14T12:52:37.154Z,21.80
2018-09-14T12:53:42.760Z,21.70
2018-09-14T12:54:48.260Z,21.80
2018-09-14T12:55:53.656Z,21.80
2018-09-14T12:56:59.153Z,21.80
2018-09-14T12:58:04.654Z,21.90
2018-09-14T12:59:10.231Z,22.00
2018-09-14T13:00:15.801Z,22.00
2018-09-14T13:01:21.204Z,22.10
2018-09-14T13:02:26.799Z,22.20
2018-09-14T13:03:32.206Z,22.20
2018-09-14T13:04:37.652Z,22.30
2018-09-14T13:05:43.196Z,22.40
2018-09-14T13:06:48.709Z,22.30
2018-09-14T13:07:54.194Z,22.30
2018-09-14T13:08:59.665Z,22.30
2018-09-14T13:10:05.520Z,22.30
2018-09-14T13:11:10.980Z,22.10
2018-09-14T13:12:16.385Z,22.10
2018-09-14T13:13:21.816Z,22.10
2018-09-14T13:14:27.284Z,22.10
2018-09-14T13:15:32.707Z,22.10
2018-09-14T13:16:38.529Z,22.20
2018-09-14T13:17:43.937Z,22.20
2018-09-14T13:18:49.349Z,22.20
2018-09-14T13:19:54.757Z,22.10
2018-09-14T13:21:00.204Z,22.10
2018-09-14T13:22:05.632Z,22.00
2018-09-14T13:23:11.469Z,22.00
2018-09-14T13:24:17.175Z,22.10
2018-09-14T13:25:22.536Z,22.20
2018-09-14T13:26:27.949Z,22.20
2018-09-14T13:27:33.410Z,22.20
2018-09-14T13:28:38.885Z,22.10
2018-09-14T13:29:44.358Z,22.10
2018-09-14T13:30:49.773Z,22.20
2018-09-14T13:31:55.193Z,22.20
2018-09-14T13:33:00.657Z,22.20
2018-09-14T13:34:06.141Z,22.40
2018-09-14T13:35:11.765Z,22.30
2018-09-14T13:36:17.205Z,22.30
2018-09-14T13:37:22.753Z,22.30
2018-09-14T13:38:28.232Z,22.40
2018-09-14T13:39:33.721Z,22.40
2018-09-14T13:40:39.130Z,22.40
2018-09-14T13:41:44.542Z,22.20
2018-09-14T13:42:50.493Z,22.10
2018-09-14T13:43:56.142Z,22.10
2018-09-14T13:45:01.597Z,22.10
2018-09-14T13:46:07.246Z,22.10
2018-09-14T13:47:12.681Z,22.00
2018-09-14T13:48:18.185Z,22.10
2018-09-14T13:49:23.763Z,22.10
2018-09-14T13:50:29.212Z,22.10
2018-09-14T13:51:34.839Z,22.00
2018-09-14T13:52:40.292Z,22.10
2018-09-14T13:53:45.724Z,22.10
2018-09-14T13:54:51.203Z,22.10
2018-09-14T13:55:56.680Z,22.10
2018-09-14T13:57:02.187Z,22.10
2018-09-14T13:58:07.661Z,22.00
2018-09-14T13:59:13.128Z,22.00
2018-09-14T14:00:18.606Z,21.90
2018-09-14T14:01:24.284Z,22.00
2018-09-14T14:02:30.641Z,22.00
2018-09-14T14:03:36.125Z,21.90
2018-09-14T14:04:41.561Z,21.90
2018-09-14T14:05:47.021Z,21.80
2018-09-14T14:06:52.494Z,21.70
2018-09-14T14:07:58.001Z,21.70
2018-09-14T14:09:03.444Z,21.60
2018-09-14T14:10:08.880Z,21.60
2018-09-14T14:11:14.322Z,21.60
2018-09-14T14:12:19.748Z,21.50
2018-09-14T14:13:25.293Z,21.60
2018-09-14T14:14:30.728Z,21.50
2018-09-14T14:15:36.300Z,21.30
2018-09-14T14:16:41.688Z,21.30
2018-09-14T14:17:47.174Z,21.20